Time;durP1;ratioP1;P1;durP2;ratioP2;P2;SDS_P1;SDS_P2;PMS_P1;PMS_P2;Temp;Humidity;BMP_temperature;BMP_pressure;BME280_temperature;BME280_humidity;BME280_pressure;Samples;Min_cycle;Max_cycle;Signal;HPM_P1;HPM_P2
2023/08/17 00:00:19;;;;;;;4.43;3.20;;;;;;;21.08;100.00;96125.38;5105401;28;20038;-71
2023/08/17 00:02:44;;;;;;;3.85;3.13;;;;;;;21.07;100.00;96136.31;5095509;28;20039;-71
2023/08/17 00:05:10;;;;;;;4.15;3.13;;;;;;;21.09;100.00;96124.34;5097123;28;20115;-71
2023/08/17 00:07:36;;;;;;;3.50;3.22;;;;;;;21.10;100.00;96128.69;5093953;28;20448;-71
2023/08/17 00:10:02;;;;;;;4.15;3.63;;;;;;;21.08;100.00;96132.59;5095553;28;20028;-71
2023/08/17 00:12:28;;;;;;;3.67;3.28;;;;;;;21.08;100.00;96121.91;5108571;28;20034;-71
2023/08/17 00:14:53;;;;;;;3.72;3.20;;;;;;;21.09;100.00;96118.19;5095218;28;20028;-69
2023/08/17 00:17:19;;;;;;;4.25;3.03;;;;;;;21.12;100.00;96120.47;5114845;28;20123;-70
2023/08/17 00:19:45;;;;;;;3.15;2.85;;;;;;;21.12;100.00;96115.97;5109270;28;20055;-70
2023/08/17 00:22:10;;;;;;;3.90;2.80;;;;;;;21.08;100.00;96125.38;5095244;28;20039;-70
2023/08/17 00:24:36;;;;;;;3.60;3.35;;;;;;;20.99;100.00;96131.94;5093813;28;20023;-70
2023/08/17 00:27:01;;;;;;;3.47;3.00;;;;;;;20.95;100.00;96125.34;5115241;27;20034;-70
2023/08/17 00:29:27;;;;;;;3.95;3.50;;;;;;;20.87;100.00;96129.78;5096763;27;20128;-71
2023/08/17 00:31:52;;;;;;;3.33;3.03;;;;;;;20.79;100.00;96143.31;5106386;28;20035;-70
2023/08/17 00:34:18;;;;;;;3.00;2.80;;;;;;;20.77;100.00;96142.69;5127355;27;20036;-71
2023/08/17 00:36:44;;;;;;;4.40;3.10;;;;;;;20.76;100.00;96130.31;5115110;28;20274;-71
2023/08/17 00:39:09;;;;;;;3.78;2.95;;;;;;;20.71;100.00;96130.91;5094612;28;20063;-71
2023/08/17 00:41:35;;;;;;;3.78;2.92;;;;;;;20.63;100.00;96152.47;5094792;28;20428;-70
2023/08/17 00:44:00;;;;;;;6.25;5.65;;;;;;;20.64;100.00;96148.75;5077012;28;20488;-71
2023/08/17 00:46:27;;;;;;;10.13;6.32;;;;;;;20.60;100.00;96147.50;5110013;28;20120;-71
2023/08/17 00:48:54;;;;;;;5.72;4.50;;;;;;;20.59;100.00;96135.97;5097290;27;20039;-71
2023/08/17 00:51:23;;;;;;;5.40;3.00;;;;;;;20.56;100.00;96136.34;5101984;28;20020;-71
2023/08/17 00:53:50;;;;;;;5.60;3.70;;;;;;;20.52;100.00;96142.28;5101201;28;20024;-70
2023/08/17 00:56:15;;;;;;;4.22;3.83;;;;;;;20.53;100.00;96135.91;5101681;28;20027;-71
2023/08/17 00:58:42;;;;;;;3.60;3.30;;;;;;;20.51;100.00;96132.59;5100643;28;20473;-71
2023/08/17 01:01:08;;;;;;;3.50;3.15;;;;;;;20.50;100.00;96128.28;5101217;28;20030;-71
2023/08/17 01:03:34;;;;;;;4.88;3.50;;;;;;;20.46;100.00;96131.34;5104115;28;20568;-71
2023/08/17 01:06:02;;;;;;;10.40;3.20;;;;;;;20.46;100.00;96125.19;5094119;28;20034;-71
2023/08/17 01:08:29;;;;;;;4.30;3.05;;;;;;;20.39;100.00;96127.78;5094327;28;20024;-71
2023/08/17 01:11:24;;;;;;;3.30;2.97;;;;;;;20.28;100.00;96149.69;5101108;28;20542;-70
2023/08/17 01:13:59;;;;;;;;;;;;;;;20.17;100.00;96148.34;5095476;28;20500;-71
2023/08/17 01:16:29;;;;;;;4.13;3.50;;;;;;;20.16;100.00;96144.03;5097748;28;19919;-71
2023/08/17 01:18:57;;;;;;;5.25;3.60;;;;;;;20.18;100.00;96137.50;5096912;28;20046;-71
2023/08/17 01:21:24;;;;;;;3.63;3.33;;;;;;;20.13;100.00;96137.25;5111392;28;20024;-71
2023/08/17 01:23:50;;;;;;;4.50;3.28;;;;;;;20.06;100.00;96143.53;5109981;28;20039;-71
2023/08/17 01:26:16;;;;;;;5.75;3.58;;;;;;;19.98;100.00;96142.63;5102297;27;20050;-72
2023/08/17 01:28:47;;;;;;;3.30;3.10;;;;;;;19.96;100.00;96142.00;5108237;28;20048;-71
2023/08/17 01:31:21;;;;;;;3.60;3.30;;;;;;;19.88;100.00;96145.56;5106071;28;20027;-71
2023/08/17 01:33:55;;;;;;;3.95;3.50;;;;;;;19.82;100.00;96148.19;5100170;28;20027;-71
2023/08/17 01:36:26;;;;;;;4.40;3.10;;;;;;;19.77;100.00;96154.09;5107679;28;20031;-71
2023/08/17 01:38:55;;;;;;;4.68;3.45;;;;;;;19.73;100.00;96148.31;5106475;27;20066;-71
2023/08/17 01:41:22;;;;;;;3.42;3.13;;;;;;;19.70;100.00;96143.34;5100637;28;20031;-71
2023/08/17 01:43:48;;;;;;;3.33;3.10;;;;;;;19.64;100.00;96152.13;5100344;28;20020;-71
2023/08/17 01:46:15;;;;;;;3.20;2.97;;;;;;;19.60;100.00;96164.19;5120859;27;20388;-71
2023/08/17 01:48:41;;;;;;;3.45;3.15;;;;;;;19.55;100.00;96177.25;5118067;27;20027;-71
2023/08/17 01:51:07;;;;;;;10.98;4.97;;;;;;;19.52;100.00;96174.97;5111640;27;20032;-71
2023/08/17 01:53:32;;;;;;;3.95;3.40;;;;;;;19.50;100.00;96177.00;5110034;28;20118;-72
2023/08/17 01:55:57;;;;;;;4.68;3.40;;;;;;;19.45;100.00;96177.53;5101797;28;20043;-71
2023/08/17 01:58:23;;;;;;;3.25;3.05;;;;;;;19.48;100.00;96166.50;5109656;27;20032;-71
2023/08/17 02:00:48;;;;;;;3.55;3.25;;;;;;;19.45;100.00;96157.03;5108605;28;20644;-71
2023/08/17 02:03:14;;;;;;;3.60;3.10;;;;;;;19.41;100.00;96160.25;5110258;28;20034;-71
2023/08/17 02:05:44;;;;;;;3.80;3.22;;;;;;;19.36;100.00;96152.81;5101165;28;20028;-71
2023/08/17 02:08:09;;;;;;;3.88;3.58;;;;;;;19.34;100.00;96160.16;5100588;28;20106;-71
2023/08/17 02:10:35;;;;;;;5.25;3.33;;;;;;;19.32;100.00;96162.19;5116450;28;20547;-71
2023/08/17 02:13:00;;;;;;;4.18;3.65;;;;;;;19.34;100.00;96157.50;5118218;28;20050;-71
2023/08/17 02:15:26;;;;;;;7.05;3.42;;;;;;;19.41;100.00;96154.91;5111209;27;20054;-71
2023/08/17 02:17:51;;;;;;;5.50;3.38;;;;;;;19.42;100.00;96157.41;5100329;28;20032;-71
2023/08/17 02:20:16;;;;;;;8.13;7.38;;;;;;;19.40;100.00;96162.09;5099196;28;20024;-71
2023/08/17 02:22:42;;;;;;;7.88;7.03;;;;;;;19.38;100.00;96176.63;5100924;28;20028;-71
2023/08/17 02:25:08;;;;;;;7.45;4.90;;;;;;;19.31;100.00;96171.22;5099210;28;20103;-71
2023/08/17 02:27:33;;;;;;;4.50;3.60;;;;;;;19.28;100.00;96168.91;5101796;27;20052;-71
2023/08/17 02:29:59;;;;;;;5.97;3.80;;;;;;;19.21;100.00;96182.16;5104154;28;20063;-71
2023/08/17 02:32:24;;;;;;;7.15;3.63;;;;;;;19.21;100.00;96171.50;5101626;27;20039;-71
2023/08/17 02:34:49;;;;;;;4.07;3.50;;;;;;;19.22;100.00;96175.00;5100447;28;20099;-71
2023/08/17 02:37:15;;;;;;;3.50;3.05;;;;;;;19.20;100.00;96185.84;5100103;28;20396;-71
2023/08/17 02:39:40;;;;;;;4.28;3.47;;;;;;;19.14;100.00;96191.94;5100677;28;20040;-71
2023/08/17 02:42:06;;;;;;;4.38;3.35;;;;;;;19.10;100.00;96178.13;5098918;28;20035;-71
2023/08/17 02:44:31;;;;;;;3.90;3.58;;;;;;;19.06;100.00;96171.50;5103914;28;20020;-71
2023/08/17 02:46:57;;;;;;;4.00;3.60;;;;;;;19.07;100.00;96167.00;5099684;28;20036;-71
2023/08/17 02:49:22;;;;;;;4.20;3.58;;;;;;;19.06;100.00;96184.84;5100599;28;20023;-71
2023/08/17 02:51:48;;;;;;;3.80;3.50;;;;;;;19.05;100.00;96180.50;5103753;28;20031;-71
2023/08/17 02:54:13;;;;;;;6.43;3.53;;;;;;;19.06;100.00;96174.16;5101364;28;20077;-71
2023/08/17 02:56:38;;;;;;;8.63;3.45;;;;;;;19.07;100.00;96175.81;5095211;28;20070;-72
2023/08/17 02:59:04;;;;;;;5.35;3.35;;;;;;;19.04;100.00;96177.03;5102394;28;20035;-71
2023/08/17 03:01:31;;;;;;;4.80;3.30;;;;;;;18.95;100.00;96179.94;5096741;28;20027;-71
2023/08/17 03:03:56;;;;;;;4.00;3.60;;;;;;;18.87;100.00;96179.00;5110118;28;20042;-71
2023/08/17 03:06:21;;;;;;;4.40;3.50;;;;;;;18.80;100.00;96171.94;5107027;28;20020;-71
2023/08/17 03:08:47;;;;;;;6.65;3.40;;;;;;;18.86;100.00;96171.19;5101283;28;20026;-71
2023/08/17 03:11:12;;;;;;;3.72;3.40;;;;;;;18.87;100.00;96167.50;5115935;28;20027;-71
2023/08/17 03:13:38;;;;;;;6.57;3.40;;;;;;;18.90;100.00;96161.81;5107552;28;20086;-71
2023/08/17 03:16:03;;;;;;;3.90;3.63;;;;;;;18.97;100.00;96159.25;5096591;28;20036;-71
2023/08/17 03:18:29;;;;;;;3.83;3.53;;;;;;;18.97;100.00;96154.72;5108235;28;20031;-70
2023/08/17 03:20:54;;;;;;;5.72;3.15;;;;;;;18.99;100.00;96155.38;5097070;28;20679;-71
2023/08/17 03:23:20;;;;;;;6.53;3.92;;;;;;;19.01;100.00;96155.22;5101804;28;20510;-70
2023/08/17 03:25:45;;;;;;;4.43;3.70;;;;;;;19.03;100.00;96153.19;5103622;28;20077;-71
2023/08/17 03:28:11;;;;;;;4.38;3.33;;;;;;;19.07;100.00;96148.31;5095514;28;20020;-71
2023/08/17 03:30:36;;;;;;;6.50;3.67;;;;;;;19.03;100.00;96154.03;5108602;28;20041;-71
2023/08/17 03:33:02;;;;;;;8.52;3.30;;;;;;;19.07;100.00;96159.81;5077530;28;20035;-71
2023/08/17 03:35:28;;;;;;;3.88;3.47;;;;;;;19.07;100.00;96159.81;5096973;28;20079;-71
2023/08/17 03:37:53;;;;;;;3.55;3.25;;;;;;;19.14;100.00;96152.75;5096714;28;20055;-70
2023/08/17 03:40:19;;;;;;;3.88;3.38;;;;;;;19.20;100.00;96159.16;5097313;28;20382;-71
2023/08/17 03:42:44;;;;;;;4.63;3.33;;;;;;;19.21;100.00;96166.16;5099450;28;20028;-70
2023/08/17 03:45:09;;;;;;;5.30;3.72;;;;;;;19.17;100.00;96163.03;5096115;28;20485;-71
2023/08/17 03:47:35;;;;;;;6.03;3.75;;;;;;;19.11;100.00;96166.44;5099107;28;20023;-71
2023/08/17 03:50:00;;;;;;;4.10;3.60;;;;;;;19.11;100.00;96155.75;5112660;27;20033;-71
2023/08/17 03:52:26;;;;;;;4.43;4.00;;;;;;;19.10;100.00;96153.28;5094376;28;20020;-71
2023/08/17 03:54:51;;;;;;;4.18;3.35;;;;;;;19.01;100.00;96161.41;5096497;28;20032;-71
2023/08/17 03:57:17;;;;;;;4.28;3.75;;;;;;;18.99;100.00;96159.91;5096513;28;20037;-71
2023/08/17 03:59:42;;;;;;;8.07;3.80;;;;;;;18.95;100.00;96163.94;5095323;28;20031;-71
2023/08/17 04:02:07;;;;;;;7.28;3.85;;;;;;;18.95;100.00;96170.06;5096468;28;20028;-71
2023/08/17 04:04:33;;;;;;;5.35;3.20;;;;;;;18.92;100.00;96166.97;5095216;28;20368;-71
2023/08/17 04:06:58;;;;;;;6.93;3.97;;;;;;;18.87;100.00;96172.84;5095348;28;20031;-71
2023/08/17 04:09:24;;;;;;;5.90;3.40;;;;;;;18.85;100.00;96186.34;5096235;28;20508;-71
2023/08/17 04:11:49;;;;;;;4.70;3.75;;;;;;;18.89;100.00;96187.63;5107634;28;20398;-71
2023/08/17 04:14:14;;;;;;;3.90;3.25;;;;;;;19.01;100.00;96192.56;5093703;28;20568;-71
2023/08/17 04:16:40;;;;;;;6.93;4.10;;;;;;;19.05;100.00;96201.84;5108515;28;20078;-72
2023/08/17 04:19:05;;;;;;;5.25;3.83;;;;;;;19.05;100.00;96209.88;5095092;28;20106;-71
2023/08/17 04:21:31;;;;;;;5.10;3.45;;;;;;;19.01;100.00;96212.09;5095181;28;20024;-71
2023/08/17 04:23:56;;;;;;;6.53;3.63;;;;;;;18.93;100.00;96217.47;5106747;28;20023;-71
2023/08/17 04:26:22;;;;;;;4.35;3.83;;;;;;;18.95;100.00;96211.94;5101368;27;20019;-71
2023/08/17 04:28:47;;;;;;;5.15;3.45;;;;;;;18.96;100.00;96208.28;5099507;28;20134;-71
2023/08/17 04:31:13;;;;;;;10.15;4.03;;;;;;;19.00;100.00;96207.72;5096709;28;20026;-71
2023/08/17 04:33:40;;;;;;;5.03;3.55;;;;;;;18.96;100.00;96209.09;5102843;27;20047;-71
2023/08/17 04:36:05;;;;;;;5.53;3.55;;;;;;;18.93;100.00;96205.97;5096269;28;20031;-71
2023/08/17 04:38:30;;;;;;;6.75;3.50;;;;;;;18.93;100.00;96209.44;5103755;28;20031;-71
2023/08/17 04:40:56;;;;;;;6.55;3.47;;;;;;;19.03;100.00;96218.06;5101652;27;20055;-71
2023/08/17 04:43:21;;;;;;;7.93;3.33;;;;;;;19.11;100.00;96214.47;5093536;28;20028;-71
2023/08/17 04:45:47;;;;;;;6.60;3.40;;;;;;;19.17;100.00;96218.25;5099562;28;20024;-71
2023/08/17 04:48:13;;;;;;;5.78;3.92;;;;;;;19.21;100.00;96218.72;5094437;28;20028;-70
2023/08/17 04:50:39;;;;;;;3.88;3.58;;;;;;;19.23;100.00;96211.34;5109126;27;20098;-71
2023/08/17 04:53:04;;;;;;;4.28;3.58;;;;;;;19.22;100.00;96228.38;5094750;28;20034;-71
2023/08/17 04:55:31;;;;;;;6.68;3.63;;;;;;;19.26;100.00;96227.84;5110664;28;20027;-71
2023/08/17 04:57:57;;;;;;;5.53;3.95;;;;;;;19.25;100.00;96217.34;5093084;28;20085;-71
2023/08/17 05:00:27;;;;;;;3.97;3.25;;;;;;;19.29;100.00;96215.94;5093841;28;20043;-71
2023/08/17 05:02:54;;;;;;;9.80;3.55;;;;;;;19.31;100.00;96220.09;5094441;28;20028;-71
2023/08/17 05:05:19;;;;;;;7.63;3.75;;;;;;;19.45;100.00;96221.09;5095497;28;20123;-71
2023/08/17 05:07:45;;;;;;;5.22;3.70;;;;;;;19.51;100.00;96224.88;5113796;28;20040;-71
2023/08/17 05:10:10;;;;;;;7.47;3.92;;;;;;;19.49;100.00;96234.06;5102108;28;20024;-71
2023/08/17 05:12:35;;;;;;;4.40;3.70;;;;;;;19.50;100.00;96251.75;5103570;28;20038;-71
2023/08/17 05:15:01;;;;;;;5.45;3.35;;;;;;;19.50;100.00;96257.09;5094254;28;20730;-71
2023/08/17 05:17:26;;;;;;;4.32;3.60;;;;;;;19.49;100.00;96266.97;5105398;28;20376;-70
2023/08/17 05:19:52;;;;;;;5.50;3.75;;;;;;;19.46;100.00;96273.50;5096730;28;20031;-71
2023/08/17 05:22:17;;;;;;;7.22;4.10;;;;;;;19.46;100.00;96286.03;5092589;28;20063;-71
2023/08/17 05:24:42;;;;;;;6.50;3.58;;;;;;;19.44;100.00;96291.53;5097817;28;20595;-71
2023/08/17 05:27:08;;;;;;;4.95;3.67;;;;;;;19.46;100.00;96307.38;5093870;28;20472;-71
2023/08/17 05:29:33;;;;;;;4.00;3.70;;;;;;;19.51;100.00;96315.66;5093830;28;20135;-71
2023/08/17 05:31:58;;;;;;;5.45;3.72;;;;;;;19.53;100.00;96318.97;5094381;28;20024;-71
2023/08/17 05:34:24;;;;;;;4.25;3.58;;;;;;;19.53;100.00;96313.63;5095160;28;20472;-72
2023/08/17 05:36:50;;;;;;;3.90;3.60;;;;;;;19.58;100.00;96321.09;5094049;28;20028;-72
2023/08/17 05:39:15;;;;;;;5.75;3.63;;;;;;;19.65;100.00;96326.53;5093659;28;20027;-71
2023/08/17 05:41:41;;;;;;;3.65;3.35;;;;;;;19.56;100.00;96331.97;5084230;28;20028;-71
2023/08/17 05:44:09;;;;;;;5.13;3.75;;;;;;;19.44;100.00;96350.28;5095973;28;20066;-71
2023/08/17 05:46:35;;;;;;;5.65;3.95;;;;;;;19.37;100.00;96351.16;5094365;28;20544;-71
2023/08/17 05:49:02;;;;;;;5.82;3.90;;;;;;;19.35;100.00;96372.72;5100059;28;20069;-71
2023/08/17 05:51:28;;;;;;;7.15;4.03;;;;;;;19.41;100.00;96361.31;5114033;28;20043;-71
2023/08/17 05:53:53;;;;;;;8.60;3.70;;;;;;;19.49;100.00;96363.09;5099496;28;20032;-71
2023/08/17 05:56:19;;;;;;;5.53;3.83;;;;;;;19.56;100.00;96372.00;5106188;28;20028;-71
2023/08/17 05:58:44;;;;;;;3.55;3.20;;;;;;;19.64;100.00;96364.94;5093463;28;20503;-71
2023/08/17 06:01:10;;;;;;;12.00;3.92;;;;;;;19.64;100.00;96381.78;5106331;28;20100;-71
2023/08/17 06:03:37;;;;;;;19.88;4.15;;;;;;;19.66;100.00;96384.25;5094589;28;20066;-71
2023/08/17 06:06:03;;;;;;;7.93;3.83;;;;;;;19.70;100.00;96383.72;5094976;28;20100;-71
2023/08/17 06:08:29;;;;;;;9.25;3.58;;;;;;;19.69;100.00;96381.25;5097308;28;20023;-71
2023/08/17 06:10:55;;;;;;;8.57;4.05;;;;;;;19.70;100.00;96391.75;5101890;28;20043;-71
2023/08/17 06:13:20;;;;;;;4.38;3.47;;;;;;;19.75;100.00;96381.34;5099921;28;20108;-71
2023/08/17 06:15:45;;;;;;;3.55;3.28;;;;;;;19.78;100.00;96382.81;5084284;28;20070;-71
2023/08/17 06:18:11;;;;;;;8.75;4.20;;;;;;;19.84;100.00;96376.72;5097294;28;20115;-71
2023/08/17 06:20:36;;;;;;;8.70;4.90;;;;;;;19.85;100.00;96378.38;5103452;28;20024;-71
2023/08/17 06:23:02;;;;;;;9.35;4.53;;;;;;;19.95;100.00;96354.09;5096664;28;20026;-71
2023/08/17 06:25:27;;;;;;;6.40;3.90;;;;;;;20.01;100.00;96345.38;5096117;28;20020;-71
2023/08/17 06:27:53;;;;;;;4.80;3.85;;;;;;;20.08;100.00;96325.91;5097894;27;20020;-71
2023/08/17 06:30:18;;;;;;;7.68;3.65;;;;;;;20.10;100.00;96297.16;5096002;28;20048;-70
2023/08/17 06:32:44;;;;;;;4.75;3.92;;;;;;;19.97;100.00;96298.63;5098603;27;20016;-71
2023/08/17 06:35:10;;;;;;;4.07;3.72;;;;;;;19.87;100.00;96301.56;5097786;28;20031;-71
2023/08/17 06:37:35;;;;;;;4.22;3.83;;;;;;;19.74;100.00;96310.22;5104491;27;20039;-71
2023/08/17 06:40:02;;;;;;;3.83;3.53;;;;;;;19.67;100.00;96313.81;5098301;28;20035;-70
2023/08/17 06:42:27;;;;;;;4.03;3.60;;;;;;;19.66;100.00;96328.19;5098513;28;20020;-70
2023/08/17 06:44:53;;;;;;;5.93;3.95;;;;;;;19.66;100.00;96321.00;5106211;28;20034;-70
2023/08/17 06:47:18;;;;;;;4.60;4.07;;;;;;;19.69;100.00;96325.97;5101188;28;20028;-70
2023/08/17 06:49:44;;;;;;;4.53;4.10;;;;;;;19.69;100.00;96323.31;5106770;27;20476;-71
2023/08/17 06:52:09;;;;;;;7.75;3.75;;;;;;;19.70;100.00;96332.16;5101259;28;20100;-71
2023/08/17 06:54:35;;;;;;;5.95;3.78;;;;;;;19.72;100.00;96341.63;5107170;28;20060;-71
2023/08/17 06:57:00;;;;;;;6.30;3.63;;;;;;;19.78;100.00;96334.72;5109314;28;20042;-71
2023/08/17 06:59:26;;;;;;;11.05;4.00;;;;;;;19.83;100.00;96339.53;5096568;28;20028;-70
2023/08/17 07:01:51;;;;;;;9.75;3.80;;;;;;;19.94;100.00;96325.72;5095472;28;20059;-70
2023/08/17 07:04:17;;;;;;;5.25;3.58;;;;;;;20.03;100.00;96313.94;5096652;28;20044;-71
2023/08/17 07:06:43;;;;;;;8.70;4.00;;;;;;;20.14;100.00;96315.31;5096800;28;20041;-70
2023/08/17 07:09:10;;;;;;;6.25;3.80;;;;;;;20.31;100.00;96307.88;5095036;28;20479;-71
2023/08/17 07:11:35;;;;;;;7.43;3.38;;;;;;;20.51;100.00;96303.75;5098217;28;20058;-71
2023/08/17 07:14:00;;;;;;;8.05;3.95;;;;;;;20.75;100.00;96302.56;5103565;28;20027;-71
2023/08/17 07:16:26;;;;;;;8.65;3.70;;;;;;;21.11;100.00;96292.81;5102989;28;20032;-71
2023/08/17 07:18:51;;;;;;;6.38;4.28;;;;;;;21.42;100.00;96289.75;5107344;28;20107;-70
2023/08/17 07:21:17;;;;;;;6.53;3.67;;;;;;;21.54;100.00;96286.50;5099787;28;20024;-70
2023/08/17 07:23:45;;;;;;;5.20;3.67;;;;;;;21.79;100.00;96270.81;5096155;28;20028;-70
2023/08/17 07:26:10;;;;;;;9.25;3.75;;;;;;;22.15;100.00;96260.84;5096896;27;20056;-70
2023/08/17 07:28:38;;;;;;;6.00;3.58;;;;;;;22.74;100.00;96248.59;5094496;28;20054;-71
2023/08/17 07:31:05;;;;;;;5.00;3.25;;;;;;;22.82;100.00;96231.47;5098071;28;20058;-70
2023/08/17 07:33:31;;;;;;;6.10;4.13;;;;;;;22.93;100.00;96235.41;5105359;27;20035;-70
2023/08/17 07:35:58;;;;;;;6.80;3.42;;;;;;;23.01;100.00;96215.56;5102804;28;20027;-70
2023/08/17 07:38:24;;;;;;;7.57;3.38;;;;;;;23.28;100.00;96210.19;5095917;28;20028;-70
2023/08/17 07:40:49;;;;;;;9.52;3.92;;;;;;;23.30;100.00;96208.09;5095607;28;20053;-70
2023/08/17 07:43:14;;;;;;;6.90;3.70;;;;;;;23.15;100.00;96214.53;5094684;28;20038;-70
2023/08/17 07:45:40;;;;;;;5.97;3.40;;;;;;;22.99;100.00;96223.84;5094184;28;20028;-70
2023/08/17 07:48:06;;;;;;;7.60;3.50;;;;;;;22.84;100.00;96245.50;5096404;28;20058;-70
2023/08/17 07:50:31;;;;;;;3.53;3.22;;;;;;;22.68;100.00;96257.47;5106105;27;20511;-70
2023/08/17 07:52:56;;;;;;;4.18;3.70;;;;;;;22.65;100.00;96260.59;5095488;28;20028;-70
2023/08/17 07:55:22;;;;;;;5.55;3.38;;;;;;;22.71;100.00;96258.94;5097373;28;20107;-70
2023/08/17 07:57:47;;;;;;;5.22;3.58;;;;;;;22.71;100.00;96253.56;5094499;28;20030;-70
2023/08/17 08:00:13;;;;;;;9.05;3.80;;;;;;;22.73;100.00;96240.78;5096734;28;20028;-70
2023/08/17 08:02:38;;;;;;;4.63;3.67;;;;;;;22.70;100.00;96239.31;5095508;28;20046;-70
2023/08/17 08:05:04;;;;;;;8.95;4.28;;;;;;;22.67;100.00;96230.88;5101599;28;20094;-70
2023/08/17 08:07:29;;;;;;;6.93;3.70;;;;;;;22.68;100.00;96229.84;5095586;28;20024;-70
2023/08/17 08:09:55;;;;;;;8.55;4.13;;;;;;;22.87;100.00;96225.50;5096136;28;20431;-70
2023/08/17 08:12:20;;;;;;;4.93;3.88;;;;;;;23.57;100.00;96183.88;5114503;28;20064;-70
2023/08/17 08:14:46;;;;;;;3.92;3.35;;;;;;;24.58;100.00;96159.91;5098342;28;20028;-70
2023/08/17 08:17:11;;;;;;;5.68;3.65;;;;;;;25.34;100.00;96132.09;5077345;28;20703;-68
2023/08/17 08:19:37;;;;;;;4.15;3.10;;;;;;;25.61;100.00;96121.00;5095127;28;20568;-67
2023/08/17 08:22:02;;;;;;;4.80;3.30;;;;;;;25.43;100.00;96114.56;5095218;28;20031;-68
2023/08/17 08:24:33;;;;;;;4.97;3.40;;;;;;;24.86;100.00;96125.56;5095175;28;20039;-67
2023/08/17 08:26:59;;;;;;;5.07;3.53;;;;;;;24.51;100.00;96126.88;5104857;28;20031;-68
2023/08/17 08:29:24;;;;;;;6.38;3.03;;;;;;;24.40;100.00;96136.47;5095184;28;20048;-68
2023/08/17 08:31:49;;;;;;;8.32;3.72;;;;;;;24.28;100.00;96148.97;5103797;28;20036;-68
2023/08/17 08:34:15;;;;;;;5.80;3.20;;;;;;;24.28;100.00;96143.59;5100522;27;20082;-68
2023/08/17 08:36:40;;;;;;;7.78;3.42;;;;;;;24.61;100.00;96127.19;5105881;28;20107;-68
2023/08/17 08:39:05;;;;;;;6.43;3.40;;;;;;;24.85;100.00;96132.78;5096202;28;20035;-68
2023/08/17 08:41:32;;;;;;;5.82;3.00;;;;;;;24.74;100.00;96147.78;5076278;28;20020;-68
2023/08/17 08:43:58;;;;;;;3.92;3.10;;;;;;;24.86;100.00;96145.19;5094105;28;20073;-68
2023/08/17 08:46:26;;;;;;;4.97;3.38;;;;;;;25.53;100.00;96137.47;5092489;28;20016;-68
2023/08/17 08:48:54;;;;;;;5.22;3.22;;;;;;;26.37;100.00;96122.44;5097999;27;20035;-68
2023/08/17 08:51:26;;;;;;;4.60;3.17;;;;;;;26.88;100.00;96110.19;5093460;28;20028;-69
2023/08/17 08:54:02;;;;;;;3.65;2.85;;;;;;;27.31;100.00;96110.03;5098057;28;20034;-68
2023/08/17 08:56:31;;;;;;;6.45;3.58;;;;;;;27.65;100.00;96103.97;5094950;28;20408;-68
2023/08/17 08:58:58;;;;;;;5.55;3.45;;;;;;;27.85;100.00;96109.75;5095781;28;20040;-68
2023/08/17 09:01:25;;;;;;;4.30;3.08;;;;;;;27.75;100.00;96104.13;5094376;28;20038;-68
2023/08/17 09:03:52;;;;;;;3.60;3.17;;;;;;;27.26;100.00;96099.09;5094913;28;20117;-68
2023/08/17 09:06:19;;;;;;;4.13;3.40;;;;;;;26.81;100.00;96108.63;5104383;28;20020;-68
2023/08/17 09:08:45;;;;;;;9.13;3.50;;;;;;;26.56;100.00;96097.00;5093071;28;20032;-68
2023/08/17 09:11:10;;;;;;;9.38;3.55;;;;;;;26.13;100.00;96100.78;5106072;28;20035;-68
2023/08/17 09:13:36;;;;;;;6.20;3.35;;;;;;;25.96;100.00;96108.72;5093342;28;20031;-67
2023/08/17 09:16:01;;;;;;;10.90;3.20;;;;;;;25.74;100.00;96112.72;5094315;28;20028;-68
2023/08/17 09:18:27;;;;;;;7.80;3.38;;;;;;;25.84;100.00;96111.38;5106486;28;20020;-68
2023/08/17 09:20:53;;;;;;;3.92;3.10;;;;;;;26.23;100.00;96106.47;5107213;28;20055;-69
2023/08/17 09:23:20;;;;;;;4.22;2.97;;;;;;;26.41;100.00;96099.31;5094820;28;20016;-68
2023/08/17 09:25:47;;;;;;;6.28;3.58;;;;;;;26.40;100.00;96101.22;5098315;28;20065;-68
2023/08/17 09:28:14;;;;;;;5.35;3.20;;;;;;;26.87;100.00;96096.91;5102362;28;20450;-68
2023/08/17 09:30:59;;;;;;;8.25;3.10;;;;;;;27.64;100.00;96089.59;5113830;28;20030;-68
2023/08/17 09:33:29;;;;;;;6.93;3.17;;;;;;;28.12;100.00;96079.38;5098310;28;20063;-68
2023/08/17 09:35:56;;;;;;;3.50;3.13;;;;;;;28.25;100.00;96086.38;5092805;28;20265;-68
2023/08/17 09:38:22;;;;;;;7.68;3.42;;;;;;;28.07;100.00;96073.84;5094118;28;20027;-68
2023/08/17 09:40:48;;;;;;;6.03;3.10;;;;;;;27.64;100.00;96073.38;5092957;28;20024;-68
2023/08/17 09:43:18;;;;;;;7.30;3.92;;;;;;;27.23;100.00;96073.38;5103214;28;20070;-68
2023/08/17 09:45:46;;;;;;;4.60;3.25;;;;;;;26.78;100.00;96080.22;5099140;28;20145;-68
2023/08/17 09:48:15;;;;;;;5.47;3.10;;;;;;;26.20;100.00;96082.66;5098282;28;20060;-68
2023/08/17 09:50:42;;;;;;;6.38;3.25;;;;;;;26.12;100.00;96085.66;5104247;28;20031;-68
2023/08/17 09:53:11;;;;;;;3.85;3.03;;;;;;;26.57;100.00;96079.75;5093524;28;20027;-68
2023/08/17 09:55:40;;;;;;;6.07;3.60;;;;;;;27.21;100.00;96072.78;5097285;28;20472;-67
2023/08/17 09:58:06;;;;;;;4.65;3.17;;;;;;;27.78;100.00;96060.38;5097202;28;20028;-68
2023/08/17 10:00:33;;;;;;;4.65;3.22;;;;;;;28.36;100.00;96054.06;5097855;28;20028;-70
2023/08/17 10:03:02;;;;;;;7.43;3.88;;;;;;;28.58;100.00;96049.50;5106512;28;20020;-68
2023/08/17 10:05:31;;;;;;;6.65;3.05;;;;;;;28.81;100.00;96050.41;5109263;28;20052;-68
2023/08/17 10:07:59;;;;;;;6.40;3.33;;;;;;;28.86;100.00;96046.97;5097564;28;20024;-68
2023/08/17 10:10:26;;;;;;;5.38;3.03;;;;;;;28.99;100.00;96038.47;5103327;28;20019;-68
2023/08/17 10:13:10;;;;;;;7.80;3.40;;;;;;;29.18;100.00;96035.44;5104859;28;20031;-68
2023/08/17 10:16:03;;;;;;;4.00;2.90;;;;;;;29.23;100.00;96026.53;5097578;28;20733;-68
2023/08/17 10:18:37;;;;;;;4.97;3.42;;;;;;;29.55;100.00;96025.84;5091708;28;20059;-68
2023/08/17 10:21:10;;;;;;;7.00;3.55;;;;;;;29.70;100.00;96019.75;5096203;28;20035;-68
2023/08/17 10:23:37;;;;;;;9.45;3.90;;;;;;;29.87;100.00;96025.06;5104745;28;20044;-68
2023/08/17 10:26:02;;;;;;;4.88;2.75;;;;;;;30.04;100.00;96016.81;5097046;28;20078;-68
2023/08/17 10:28:30;;;;;;;10.23;3.30;;;;;;;30.14;100.00;96007.94;5096879;28;20043;-67
2023/08/17 10:30:57;;;;;;;5.75;2.97;;;;;;;30.16;100.00;96003.06;5101813;28;20043;-68
2023/08/17 10:33:23;;;;;;;6.05;2.90;;;;;;;29.95;100.00;96000.16;5097170;28;20105;-67
2023/08/17 10:35:49;;;;;;;10.73;2.63;;;;;;;30.29;100.00;95991.78;5097152;28;20067;-67
2023/08/17 10:38:15;;;;;;;3.95;2.75;;;;;;;30.48;100.00;95995.94;5097246;28;20036;-68
2023/08/17 10:40:42;;;;;;;8.05;3.45;;;;;;;30.82;100.00;95990.22;5110335;28;20020;-67
2023/08/17 10:43:08;;;;;;;8.48;3.03;;;;;;;31.11;100.00;95982.44;5097242;28;20039;-67
2023/08/17 10:45:36;;;;;;;8.52;3.35;;;;;;;31.18;100.00;95979.47;5101136;28;20115;-68
2023/08/17 10:48:07;;;;;;;9.52;2.78;;;;;;;31.10;100.00;95975.38;5096775;28;20050;-68
2023/08/17 10:50:33;;;;;;;10.18;3.05;;;;;;;31.14;100.00;95971.03;5109237;28;20036;-67
2023/08/17 10:53:04;;;;;;;11.45;3.03;;;;;;;31.29;100.00;95975.72;5096720;28;20126;-67
2023/08/17 10:55:40;;;;;;;7.10;2.95;;;;;;;31.61;100.00;95964.88;5110504;28;20030;-68
2023/08/17 10:58:10;;;;;;;12.07;3.55;;;;;;;31.81;100.00;95961.41;5096987;28;20047;-67
2023/08/17 11:00:37;;;;;;;9.73;3.60;;;;;;;32.15;100.00;95956.22;5096486;28;20095;-67
2023/08/17 11:03:11;;;;;;;7.30;3.15;;;;;;;32.18;100.00;95957.59;5096614;28;20031;-67
2023/08/17 11:05:37;;;;;;;9.85;3.45;;;;;;;31.93;100.00;95945.59;5109919;28;20016;-67
2023/08/17 11:08:03;;;;;;;6.78;2.78;;;;;;;32.07;100.00;95950.50;5096528;28;20034;-67
2023/08/17 11:10:29;;;;;;;8.40;2.92;;;;;;;32.38;100.00;95945.03;5102080;28;20071;-68
2023/08/17 11:13:02;;;;;;;7.50;2.83;;;;;;;32.66;100.00;95937.34;5115675;28;20076;-67
2023/08/17 11:15:38;;;;;;;11.32;3.28;;;;;;;32.75;100.00;95943.84;5098201;28;20024;-67
2023/08/17 11:18:05;;;;;;;9.18;3.50;;;;;;;32.94;100.00;95935.06;5097408;28;20065;-67
2023/08/17 11:20:31;;;;;;;9.73;2.78;;;;;;;33.06;100.00;95941.03;5104729;28;20038;-67